createdAt,value
2022-08-31T00:02:00.000Z,287.77
2022-08-31T00:03:27.000Z,287.77
2022-08-31T00:05:33.000Z,287.84
2022-08-31T00:07:01.000Z,287.71
2022-08-31T00:09:07.000Z,287.71
2022-08-31T00:10:33.000Z,287.77
2022-08-31T00:12:41.000Z,287.71
2022-08-31T00:14:08.000Z,287.65
2022-08-31T00:16:17.000Z,287.71
2022-08-31T00:17:44.000Z,287.71
2022-08-31T00:19:50.000Z,287.71
2022-08-31T00:21:17.000Z,287.71
2022-08-31T00:23:23.000Z,287.65
2022-08-31T00:26:14.000Z,287.65
2022-08-31T00:27:41.000Z,287.65
2022-08-31T00:29:47.000Z,287.71
2022-08-31T00:31:13.000Z,287.71
2022-08-31T00:33:20.000Z,287.71
2022-08-31T00:34:46.000Z,287.77
2022-08-31T00:36:52.000Z,287.77
2022-08-31T00:38:19.000Z,287.71
2022-08-31T00:40:25.000Z,287.65
2022-08-31T00:41:52.000Z,287.59
2022-08-31T00:43:58.000Z,287.59
2022-08-31T00:45:25.000Z,287.59
2022-08-31T00:47:31.000Z,287.65
2022-08-31T00:48:57.000Z,287.71
2022-08-31T00:51:03.000Z,287.65
2022-08-31T00:52:30.000Z,287.71
2022-08-31T00:54:41.000Z,287.65
2022-08-31T00:56:08.000Z,287.71
2022-08-31T00:58:14.000Z,287.71
2022-08-31T00:59:41.000Z,287.65
2022-08-31T01:01:47.000Z,287.65
2022-08-31T01:04:38.000Z,287.59
2022-08-31T01:06:04.000Z,287.65
2022-08-31T01:08:11.000Z,287.77
2022-08-31T01:09:37.000Z,287.77
2022-08-31T01:11:49.000Z,287.77
2022-08-31T01:13:15.000Z,287.84
2022-08-31T01:15:21.000Z,287.71
2022-08-31T01:16:48.000Z,287.77
2022-08-31T01:18:54.000Z,287.9
2022-08-31T01:20:21.000Z,287.9
2022-08-31T01:22:27.000Z,287.9
2022-08-31T01:23:54.000Z,287.9
2022-08-31T01:26:00.000Z,287.84
2022-08-31T01:27:26.000Z,287.77
2022-08-31T01:29:32.000Z,287.77
2022-08-31T01:30:59.000Z,287.9
2022-08-31T01:33:05.000Z,287.9
2022-08-31T01:34:32.000Z,287.9
2022-08-31T01:36:38.000Z,287.96
2022-08-31T01:38:04.000Z,287.96
2022-08-31T01:40:10.000Z,288.09
2022-08-31T01:43:02.000Z,288.21
2022-08-31T01:44:28.000Z,288.15
2022-08-31T01:46:34.000Z,288.02
2022-08-31T01:48:01.000Z,288.02
2022-08-31T01:50:07.000Z,288.09
2022-08-31T01:51:33.000Z,288.02
2022-08-31T01:53:39.000Z,288.09
2022-08-31T01:55:13.000Z,288.09
2022-08-31T01:57:19.000Z,288.09
2022-08-31T01:58:58.000Z,288.02
2022-08-31T02:01:10.000Z,288.09
2022-08-31T02:02:58.000Z,288.15
2022-08-31T02:05:04.000Z,288.21
2022-08-31T02:06:31.000Z,288.27
2022-08-31T02:08:37.000Z,288.4
2022-08-31T02:10:04.000Z,288.4
2022-08-31T02:12:10.000Z,288.46
2022-08-31T02:13:37.000Z,288.52
2022-08-31T02:15:43.000Z,288.52
2022-08-31T02:17:09.000Z,288.59
2022-08-31T02:19:15.000Z,288.59
2022-08-31T02:22:06.000Z,288.59
2022-08-31T02:23:33.000Z,288.59
2022-08-31T02:25:39.000Z,288.59
2022-08-31T02:27:06.000Z,288.59
2022-08-31T02:29:12.000Z,288.59
2022-08-31T02:30:38.000Z,288.59
2022-08-31T02:32:44.000Z,288.59
2022-08-31T02:34:11.000Z,288.59
2022-08-31T02:36:17.000Z,288.59
2022-08-31T02:37:44.000Z,288.52
2022-08-31T02:39:51.000Z,288.52
2022-08-31T02:41:17.000Z,288.46
2022-08-31T02:43:23.000Z,288.4
2022-08-31T02:44:50.000Z,288.46
2022-08-31T02:46:56.000Z,288.46
2022-08-31T02:48:23.000Z,288.46
2022-08-31T02:50:29.000Z,288.46
2022-08-31T02:51:55.000Z,288.46
2022-08-31T02:54:02.000Z,288.46
2022-08-31T02:55:28.000Z,288.52
2022-08-31T02:57:34.000Z,288.46
2022-08-31T03:00:26.000Z,288.52
2022-08-31T03:01:52.000Z,288.52
2022-08-31T03:03:58.000Z,288.52
2022-08-31T03:05:25.000Z,288.52
2022-08-31T03:07:31.000Z,288.52
2022-08-31T03:08:58.000Z,288.52
2022-08-31T03:11:04.000Z,288.52
2022-08-31T03:12:30.000Z,288.59
2022-08-31T03:14:36.000Z,288.52
2022-08-31T03:16:03.000Z,288.46
2022-08-31T03:18:09.000Z,288.46
2022-08-31T03:19:36.000Z,288.52
2022-08-31T03:21:42.000Z,288.46
2022-08-31T03:23:11.000Z,288.46
2022-08-31T03:25:17.000Z,288.46
2022-08-31T03:26:44.000Z,288.46
2022-08-31T03:28:50.000Z,288.52
2022-08-31T03:30:17.000Z,288.52
2022-08-31T03:32:23.000Z,288.52
2022-08-31T03:33:49.000Z,288.59
2022-08-31T03:35:55.000Z,288.59
2022-08-31T03:38:47.000Z,288.65
2022-08-31T03:40:13.000Z,288.59
2022-08-31T03:42:19.000Z,288.52
2022-08-31T03:43:46.000Z,288.52
2022-08-31T03:45:52.000Z,288.46
2022-08-31T03:47:19.000Z,288.46
2022-08-31T03:49:27.000Z,288.46
2022-08-31T03:50:53.000Z,288.52
2022-08-31T03:53:00.000Z,288.46
2022-08-31T03:54:26.000Z,288.46
2022-08-31T03:56:33.000Z,288.46
2022-08-31T03:58:00.000Z,288.46
2022-08-31T04:00:07.000Z,288.52
2022-08-31T04:01:33.000Z,288.52
2022-08-31T04:03:39.000Z,288.52
2022-08-31T04:05:06.000Z,288.59
2022-08-31T04:07:12.000Z,288.52
2022-08-31T04:08:39.000Z,288.52
2022-08-31T04:10:45.000Z,288.59
2022-08-31T04:12:11.000Z,288.59
2022-08-31T04:14:17.000Z,288.65
2022-08-31T04:17:08.000Z,288.65
2022-08-31T04:18:35.000Z,288.65
2022-08-31T04:20:41.000Z,288.71
2022-08-31T04:22:07.000Z,288.71
2022-08-31T04:24:13.000Z,288.65
2022-08-31T04:25:40.000Z,288.71
2022-08-31T04:27:46.000Z,288.71
2022-08-31T04:29:13.000Z,288.71
2022-08-31T04:31:19.000Z,288.65
2022-08-31T04:32:45.000Z,288.65
2022-08-31T04:34:51.000Z,288.59
2022-08-31T04:36:21.000Z,288.71
2022-08-31T04:38:27.000Z,288.71
2022-08-31T04:39:53.000Z,288.65
2022-08-31T04:42:03.000Z,288.46
2022-08-31T04:43:29.000Z,288.52
2022-08-31T04:45:35.000Z,288.59
2022-08-31T04:47:02.000Z,288.59
2022-08-31T04:49:08.000Z,288.52
2022-08-31T04:50:35.000Z,288.52
2022-08-31T04:52:46.000Z,288.59
2022-08-31T04:55:53.000Z,288.59
2022-08-31T04:57:19.000Z,288.65
2022-08-31T04:59:25.000Z,288.65
2022-08-31T05:00:52.000Z,288.65
2022-08-31T05:02:58.000Z,288.65
2022-08-31T05:04:25.000Z,288.65
2022-08-31T05:06:31.000Z,288.71
2022-08-31T05:07:57.000Z,288.59
2022-08-31T05:10:03.000Z,288.65
2022-08-31T05:11:30.000Z,288.71
2022-08-31T05:13:36.000Z,288.71
2022-08-31T05:15:02.000Z,288.77
2022-08-31T05:17:08.000Z,288.77
2022-08-31T05:18:39.000Z,288.77
2022-08-31T05:20:45.000Z,288.77
2022-08-31T05:22:12.000Z,288.84
2022-08-31T05:24:18.000Z,288.84
2022-08-31T05:25:45.000Z,288.9
2022-08-31T05:27:51.000Z,288.84
2022-08-31T05:29:18.000Z,288.9
2022-08-31T05:31:25.000Z,288.84
2022-08-31T05:34:16.000Z,288.9
2022-08-31T05:35:43.000Z,288.9
2022-08-31T05:37:49.000Z,288.9
2022-08-31T05:39:15.000Z,288.9
2022-08-31T05:41:21.000Z,288.9
2022-08-31T05:42:48.000Z,288.9
2022-08-31T05:44:54.000Z,288.96
2022-08-31T05:46:21.000Z,288.96
2022-08-31T05:48:27.000Z,288.9
2022-08-31T05:49:54.000Z,288.84
2022-08-31T05:52:00.000Z,288.9
2022-08-31T05:53:27.000Z,288.9
2022-08-31T05:55:33.000Z,288.9
2022-08-31T05:57:01.000Z,288.96
2022-08-31T05:59:07.000Z,289.02
2022-08-31T06:00:34.000Z,289.02
2022-08-31T06:02:40.000Z,289.02
2022-08-31T06:04:06.000Z,289.09
2022-08-31T06:06:13.000Z,289.09
2022-08-31T06:07:40.000Z,289.09
2022-08-31T06:09:46.000Z,289.15
2022-08-31T06:12:37.000Z,289.21
2022-08-31T06:14:03.000Z,289.21
2022-08-31T06:16:10.000Z,289.27
2022-08-31T06:17:36.000Z,289.27
2022-08-31T06:19:42.000Z,289.27
2022-08-31T06:21:09.000Z,289.34
2022-08-31T06:23:15.000Z,289.27
2022-08-31T06:24:42.000Z,289.21
2022-08-31T06:26:48.000Z,289.27
2022-08-31T06:28:21.000Z,289.34
2022-08-31T06:30:27.000Z,289.4
2022-08-31T06:31:53.000Z,289.4
2022-08-31T06:34:00.000Z,289.46
2022-08-31T06:35:26.000Z,289.46
2022-08-31T06:37:32.000Z,289.4
2022-08-31T06:38:59.000Z,289.4
2022-08-31T06:41:05.000Z,289.4
2022-08-31T06:42:31.000Z,289.46
2022-08-31T06:44:37.000Z,289.52
2022-08-31T06:46:04.000Z,289.52
2022-08-31T06:48:10.000Z,289.52
2022-08-31T06:51:02.000Z,289.46
2022-08-31T06:52:28.000Z,289.52
2022-08-31T06:54:34.000Z,289.59
2022-08-31T06:56:01.000Z,289.59
2022-08-31T06:58:07.000Z,289.65
2022-08-31T06:59:33.000Z,289.65
2022-08-31T07:01:39.000Z,289.71
2022-08-31T07:03:06.000Z,289.71
2022-08-31T07:05:12.000Z,289.71
2022-08-31T07:06:49.000Z,289.71
2022-08-31T07:08:55.000Z,289.71
2022-08-31T07:10:21.000Z,289.71
2022-08-31T07:12:28.000Z,289.77
2022-08-31T07:13:54.000Z,289.84
2022-08-31T07:16:00.000Z,289.77
2022-08-31T07:17:27.000Z,289.77
2022-08-31T07:19:33.000Z,289.84
2022-08-31T07:20:59.000Z,289.77
2022-08-31T07:23:05.000Z,289.84
2022-08-31T07:24:32.000Z,289.84
2022-08-31T07:26:38.000Z,289.84
2022-08-31T07:29:30.000Z,289.96
2022-08-31T07:30:56.000Z,289.96
2022-08-31T07:33:02.000Z,289.9
2022-08-31T07:34:29.000Z,290.02
2022-08-31T07:36:35.000Z,289.96
2022-08-31T07:38:01.000Z,290.02
2022-08-31T07:40:08.000Z,290.09
2022-08-31T07:41:34.000Z,290.09
2022-08-31T07:43:40.000Z,290.15
2022-08-31T07:45:07.000Z,290.15
2022-08-31T07:47:15.000Z,290.15
2022-08-31T07:48:42.000Z,290.21
2022-08-31T07:50:48.000Z,290.21
2022-08-31T07:52:15.000Z,290.15
2022-08-31T07:54:21.000Z,290.21
2022-08-31T07:55:47.000Z,290.27
2022-08-31T07:57:54.000Z,290.34
2022-08-31T07:59:20.000Z,290.34
2022-08-31T08:01:26.000Z,290.4
2022-08-31T08:02:53.000Z,290.4
2022-08-31T08:04:59.000Z,290.46
2022-08-31T08:07:50.000Z,290.59
2022-08-31T08:09:19.000Z,290.59
2022-08-31T08:11:29.000Z,290.52
2022-08-31T08:12:55.000Z,290.52
2022-08-31T08:15:03.000Z,290.59
2022-08-31T08:16:30.000Z,290.71
2022-08-31T08:18:36.000Z,290.65
2022-08-31T08:20:02.000Z,290.71
2022-08-31T08:22:09.000Z,290.77
2022-08-31T08:23:36.000Z,290.84
2022-08-31T08:25:42.000Z,290.9
2022-08-31T08:27:08.000Z,290.96
2022-08-31T08:29:16.000Z,290.96
2022-08-31T08:30:43.000Z,291.02
2022-08-31T08:32:50.000Z,291.02
2022-08-31T08:34:16.000Z,291.02
2022-08-31T08:36:22.000Z,291.15
2022-08-31T08:37:49.000Z,291.15
2022-08-31T08:40:04.000Z,291.21
2022-08-31T08:41:31.000Z,291.34
2022-08-31T08:43:37.000Z,291.34
2022-08-31T08:46:28.000Z,291.34
2022-08-31T08:47:59.000Z,291.4
2022-08-31T08:50:05.000Z,291.4
2022-08-31T08:51:32.000Z,291.52
2022-08-31T08:53:38.000Z,291.52
2022-08-31T08:55:05.000Z,291.52
2022-08-31T08:57:11.000Z,291.59
2022-08-31T08:58:37.000Z,291.65
2022-08-31T09:00:43.000Z,291.65
2022-08-31T09:02:10.000Z,291.77
2022-08-31T09:04:16.000Z,291.84
2022-08-31T09:05:42.000Z,291.96
2022-08-31T09:07:49.000Z,292.02
2022-08-31T09:09:15.000Z,292.02
2022-08-31T09:11:21.000Z,292.02
2022-08-31T09:12:50.000Z,292.09
2022-08-31T09:14:56.000Z,292.09
2022-08-31T09:16:22.000Z,292.15
2022-08-31T09:18:29.000Z,292.15
2022-08-31T09:19:55.000Z,292.21
2022-08-31T09:22:01.000Z,292.27
2022-08-31T09:24:53.000Z,292.34
2022-08-31T09:26:19.000Z,292.4
2022-08-31T09:28:25.000Z,292.34
2022-08-31T09:29:52.000Z,292.46
2022-08-31T09:31:58.000Z,292.52
2022-08-31T09:33:30.000Z,292.34
2022-08-31T09:35:36.000Z,292.4
2022-08-31T09:37:03.000Z,292.59
2022-08-31T09:39:11.000Z,292.46
2022-08-31T09:40:37.000Z,292.52
2022-08-31T09:42:43.000Z,292.59
2022-08-31T09:44:12.000Z,292.65
2022-08-31T09:46:19.000Z,292.77
2022-08-31T09:47:45.000Z,292.77
2022-08-31T09:49:52.000Z,292.9
2022-08-31T09:51:18.000Z,292.9
2022-08-31T09:53:24.000Z,292.96
2022-08-31T09:54:51.000Z,293.09
2022-08-31T09:56:57.000Z,293.15
2022-08-31T09:58:23.000Z,293.21
2022-08-31T10:00:30.000Z,293.21
2022-08-31T10:03:21.000Z,293.15
2022-08-31T10:04:48.000Z,293.15
2022-08-31T10:06:54.000Z,293.15
2022-08-31T10:08:20.000Z,293.15
2022-08-31T10:10:26.000Z,293.21
2022-08-31T10:11:56.000Z,293.27
2022-08-31T10:14:02.000Z,293.34
2022-08-31T10:15:29.000Z,293.4
2022-08-31T10:17:35.000Z,293.4
2022-08-31T10:19:01.000Z,293.46
2022-08-31T10:21:07.000Z,293.59
2022-08-31T10:22:34.000Z,293.59
2022-08-31T10:24:40.000Z,293.52
2022-08-31T10:26:07.000Z,293.65
2022-08-31T10:28:13.000Z,293.52
2022-08-31T10:29:39.000Z,293.59
2022-08-31T10:31:46.000Z,293.52
2022-08-31T10:33:13.000Z,293.52
2022-08-31T10:35:19.000Z,293.65
2022-08-31T10:36:45.000Z,293.65
2022-08-31T10:38:52.000Z,293.71
2022-08-31T10:41:43.000Z,293.65
2022-08-31T10:43:09.000Z,293.65
2022-08-31T10:45:16.000Z,293.71
2022-08-31T10:46:43.000Z,293.77
2022-08-31T10:48:49.000Z,293.77
2022-08-31T10:50:16.000Z,293.84
2022-08-31T10:52:22.000Z,293.84
2022-08-31T10:53:49.000Z,293.9
2022-08-31T10:55:55.000Z,293.84
2022-08-31T10:57:21.000Z,293.9
2022-08-31T10:59:30.000Z,293.84
2022-08-31T11:00:56.000Z,293.84
2022-08-31T11:03:03.000Z,293.96
2022-08-31T11:04:29.000Z,293.96
2022-08-31T11:06:36.000Z,293.84
2022-08-31T11:08:02.000Z,293.9
2022-08-31T11:10:09.000Z,293.9
2022-08-31T11:11:35.000Z,293.96
2022-08-31T11:13:48.000Z,293.84
2022-08-31T11:15:14.000Z,293.9
2022-08-31T11:17:23.000Z,294.02
2022-08-31T11:20:15.000Z,293.96
2022-08-31T11:21:41.000Z,294.02
2022-08-31T11:23:47.000Z,293.96
2022-08-31T11:25:14.000Z,294.02
2022-08-31T11:27:20.000Z,294.09
2022-08-31T11:28:46.000Z,294.09
2022-08-31T11:30:52.000Z,294.09
2022-08-31T11:32:19.000Z,294.09
2022-08-31T11:34:25.000Z,293.96
2022-08-31T11:35:52.000Z,294.09
2022-08-31T11:37:58.000Z,294.02
2022-08-31T11:39:24.000Z,294.09
2022-08-31T11:41:31.000Z,294.09
2022-08-31T11:42:57.000Z,294.09
2022-08-31T11:45:03.000Z,293.9
2022-08-31T11:46:30.000Z,293.96
2022-08-31T11:48:37.000Z,294.02
2022-08-31T11:50:04.000Z,294.09
2022-08-31T11:52:10.000Z,294.09
2022-08-31T11:53:37.000Z,294.09
2022-08-31T11:55:43.000Z,294.09
2022-08-31T11:58:34.000Z,294.02
2022-08-31T12:00:00.000Z,294.09
2022-08-31T12:02:07.000Z,294.15
2022-08-31T12:03:33.000Z,294.09
2022-08-31T12:05:39.000Z,294.02
2022-08-31T12:07:06.000Z,294.02
2022-08-31T12:09:12.000Z,294.02
2022-08-31T12:10:39.000Z,294.02
2022-08-31T12:12:45.000Z,293.9
2022-08-31T12:14:11.000Z,293.96
2022-08-31T12:16:17.000Z,294.02
2022-08-31T12:17:44.000Z,294.02
2022-08-31T12:19:50.000Z,294.09
2022-08-31T12:21:17.000Z,294.02
2022-08-31T12:23:23.000Z,294.02
2022-08-31T12:24:56.000Z,293.96
2022-08-31T12:27:02.000Z,293.96
2022-08-31T12:28:28.000Z,294.09
2022-08-31T12:34:07.000Z,294.21
2022-08-31T12:36:58.000Z,294.27
2022-08-31T12:38:25.000Z,294.27
2022-08-31T12:40:31.000Z,294.34
2022-08-31T12:41:57.000Z,294.27
2022-08-31T12:44:03.000Z,294.34
2022-08-31T12:45:38.000Z,294.27
2022-08-31T12:47:44.000Z,294.34
2022-08-31T12:49:11.000Z,294.34
2022-08-31T12:51:17.000Z,294.21
2022-08-31T12:52:44.000Z,294.34
2022-08-31T12:54:50.000Z,294.34
2022-08-31T12:56:16.000Z,294.34
2022-08-31T12:58:22.000Z,294.27
2022-08-31T12:59:49.000Z,294.27
2022-08-31T13:02:06.000Z,294.27
2022-08-31T13:03:34.000Z,294.4
2022-08-31T13:05:40.000Z,294.4
2022-08-31T13:07:08.000Z,294.34
2022-08-31T13:09:14.000Z,294.4
2022-08-31T13:10:40.000Z,294.34
2022-08-31T13:12:47.000Z,294.46
2022-08-31T13:15:38.000Z,294.59
2022-08-31T13:17:05.000Z,294.59
2022-08-31T13:19:11.000Z,294.71
2022-08-31T13:20:38.000Z,294.77
2022-08-31T13:22:44.000Z,294.77
2022-08-31T13:24:10.000Z,294.71
2022-08-31T13:26:16.000Z,294.84
2022-08-31T13:27:43.000Z,294.84
2022-08-31T13:29:49.000Z,294.96
2022-08-31T13:31:16.000Z,295.09
2022-08-31T13:33:22.000Z,295.27
2022-08-31T13:34:49.000Z,295.21
2022-08-31T13:36:55.000Z,295.34
2022-08-31T13:38:21.000Z,295.34
2022-08-31T13:40:27.000Z,295.4
2022-08-31T13:41:54.000Z,295.46
2022-08-31T13:44:00.000Z,295.52
2022-08-31T13:45:28.000Z,295.71
2022-08-31T13:47:34.000Z,295.84
2022-08-31T13:49:21.000Z,295.96
2022-08-31T13:51:28.000Z,295.9
2022-08-31T13:54:19.000Z,296.09
2022-08-31T13:55:45.000Z,295.84
2022-08-31T13:57:51.000Z,296.21
2022-08-31T13:59:18.000Z,296.27
2022-08-31T14:01:24.000Z,296.4
2022-08-31T14:02:51.000Z,296.52
2022-08-31T14:04:57.000Z,296.71
2022-08-31T14:06:24.000Z,296.65
2022-08-31T14:08:30.000Z,296.52
2022-08-31T14:09:56.000Z,296.59
2022-08-31T14:12:03.000Z,296.65
2022-08-31T14:13:29.000Z,296.46
2022-08-31T14:15:35.000Z,296.77
2022-08-31T14:17:02.000Z,296.84
2022-08-31T14:19:08.000Z,296.96
2022-08-31T14:20:34.000Z,297.02
2022-08-31T14:22:41.000Z,296.96
2022-08-31T14:24:07.000Z,296.96
2022-08-31T14:26:14.000Z,296.84
2022-08-31T14:27:42.000Z,296.71
2022-08-31T14:29:48.000Z,296.9
2022-08-31T14:32:39.000Z,297.02
2022-08-31T14:34:06.000Z,297.15
2022-08-31T14:36:12.000Z,297.02
2022-08-31T14:37:39.000Z,296.9
2022-08-31T14:39:45.000Z,296.65
2022-08-31T14:41:12.000Z,296.71
2022-08-31T14:43:18.000Z,296.71
2022-08-31T14:44:45.000Z,296.9
2022-08-31T14:46:51.000Z,296.77
2022-08-31T14:48:17.000Z,296.77
2022-08-31T14:50:24.000Z,296.65
2022-08-31T14:51:50.000Z,296.71
2022-08-31T14:53:57.000Z,296.34
2022-08-31T14:55:23.000Z,296.46
2022-08-31T14:57:29.000Z,296.46
2022-08-31T14:58:57.000Z,296.34
2022-08-31T15:01:03.000Z,296.21
2022-08-31T15:02:30.000Z,296.21
2022-08-31T15:04:36.000Z,296.27
2022-08-31T15:06:10.000Z,296.21
2022-08-31T15:08:17.000Z,296.4
2022-08-31T15:11:17.000Z,296.34
2022-08-31T15:12:44.000Z,296.4
2022-08-31T15:14:50.000Z,296.34
2022-08-31T15:16:17.000Z,296.02
2022-08-31T15:18:23.000Z,296.02
2022-08-31T15:19:49.000Z,295.96
2022-08-31T15:21:56.000Z,295.77
2022-08-31T15:23:27.000Z,295.59
2022-08-31T15:25:34.000Z,295.52
2022-08-31T15:27:01.000Z,295.59
2022-08-31T15:29:07.000Z,295.52
2022-08-31T15:30:36.000Z,295.34
2022-08-31T15:32:42.000Z,295.21
2022-08-31T15:34:08.000Z,295.21
2022-08-31T15:36:15.000Z,294.96
2022-08-31T15:37:42.000Z,294.96
2022-08-31T15:39:48.000Z,294.9
2022-08-31T15:41:15.000Z,294.84
2022-08-31T15:43:21.000Z,294.65
2022-08-31T15:44:48.000Z,294.71
2022-08-31T15:46:54.000Z,294.71
2022-08-31T15:49:48.000Z,294.71
2022-08-31T15:51:14.000Z,294.59
2022-08-31T15:53:20.000Z,294.65
2022-08-31T15:54:47.000Z,294.46
2022-08-31T15:56:53.000Z,294.46
2022-08-31T15:58:20.000Z,294.59
2022-08-31T16:00:29.000Z,294.52
2022-08-31T16:01:56.000Z,294.59
2022-08-31T16:04:02.000Z,294.59
2022-08-31T16:05:29.000Z,294.59
2022-08-31T16:07:35.000Z,294.59
2022-08-31T16:09:01.000Z,294.52
2022-08-31T16:11:08.000Z,294.52
2022-08-31T16:12:34.000Z,294.59
2022-08-31T16:14:41.000Z,294.59
2022-08-31T16:16:07.000Z,294.59
2022-08-31T16:18:14.000Z,294.65
2022-08-31T16:19:40.000Z,294.77
2022-08-31T16:21:46.000Z,294.84
2022-08-31T16:23:13.000Z,294.9
2022-08-31T16:25:19.000Z,294.9
2022-08-31T16:28:11.000Z,295.02
2022-08-31T16:29:37.000Z,295.09
2022-08-31T16:31:43.000Z,295.21
2022-08-31T16:33:10.000Z,295.21
2022-08-31T16:35:16.000Z,295.21
2022-08-31T16:36:43.000Z,295.27
2022-08-31T16:38:49.000Z,295.27
2022-08-31T16:40:16.000Z,295.21
2022-08-31T16:42:22.000Z,295.21
2022-08-31T16:43:49.000Z,295.27
2022-08-31T16:46:22.000Z,295.4
2022-08-31T16:48:05.000Z,295.4
2022-08-31T16:50:11.000Z,295.4
2022-08-31T16:51:38.000Z,295.34
2022-08-31T16:53:44.000Z,295.4
2022-08-31T16:55:11.000Z,295.34
2022-08-31T16:57:17.000Z,295.21
2022-08-31T16:58:44.000Z,295.27
2022-08-31T17:00:56.000Z,295.15
2022-08-31T17:02:23.000Z,295.09
2022-08-31T17:04:29.000Z,294.96
2022-08-31T17:07:41.000Z,294.84
2022-08-31T17:09:07.000Z,294.77
2022-08-31T17:11:13.000Z,294.71
2022-08-31T17:12:40.000Z,294.71
2022-08-31T17:14:46.000Z,294.52
2022-08-31T17:16:13.000Z,294.46
2022-08-31T17:18:19.000Z,294.4
2022-08-31T17:19:46.000Z,294.4
2022-08-31T17:21:52.000Z,294.34
2022-08-31T17:23:19.000Z,294.27
2022-08-31T17:25:25.000Z,294.27
2022-08-31T17:26:51.000Z,294.27
2022-08-31T17:28:58.000Z,294.02
2022-08-31T17:30:25.000Z,293.9
2022-08-31T17:32:31.000Z,293.84
2022-08-31T17:33:58.000Z,293.84
2022-08-31T17:36:04.000Z,293.77
2022-08-31T17:37:30.000Z,293.77
2022-08-31T17:39:37.000Z,293.77
2022-08-31T17:41:03.000Z,293.77
2022-08-31T17:43:10.000Z,293.71
2022-08-31T17:46:01.000Z,293.46
2022-08-31T17:47:27.000Z,293.46
2022-08-31T17:49:34.000Z,293.46
2022-08-31T17:51:02.000Z,293.34
2022-08-31T17:53:08.000Z,293.34
2022-08-31T17:54:35.000Z,293.21
2022-08-31T17:56:41.000Z,293.21
2022-08-31T17:58:12.000Z,293.15
2022-08-31T18:00:18.000Z,293.02
2022-08-31T18:01:45.000Z,293.02
2022-08-31T18:03:51.000Z,292.9
2022-08-31T18:05:18.000Z,292.9
2022-08-31T18:07:24.000Z,292.65
2022-08-31T18:08:51.000Z,292.59
2022-08-31T18:10:57.000Z,292.59
2022-08-31T18:12:24.000Z,292.4
2022-08-31T18:14:30.000Z,292.21
2022-08-31T18:15:56.000Z,292.09
2022-08-31T18:18:03.000Z,292.09
2022-08-31T18:19:29.000Z,291.96
2022-08-31T18:21:36.000Z,291.84
2022-08-31T18:24:27.000Z,291.59
2022-08-31T18:25:54.000Z,291.52
2022-08-31T18:28:00.000Z,291.09
2022-08-31T18:29:27.000Z,290.96
2022-08-31T18:31:33.000Z,290.77
2022-08-31T18:33:00.000Z,290.77
2022-08-31T18:35:07.000Z,290.71
2022-08-31T18:36:33.000Z,290.59
2022-08-31T18:38:40.000Z,290.52
2022-08-31T18:40:06.000Z,290.34
2022-08-31T18:42:13.000Z,290.15
2022-08-31T18:43:40.000Z,290.21
2022-08-31T18:45:47.000Z,290.46
2022-08-31T18:47:13.000Z,290.27
2022-08-31T18:49:19.000Z,290.02
2022-08-31T18:50:46.000Z,289.84
2022-08-31T18:52:52.000Z,289.65
2022-08-31T18:54:19.000Z,289.71
2022-08-31T18:56:25.000Z,289.59
2022-08-31T18:57:54.000Z,289.46
2022-08-31T19:00:00.000Z,289.4
2022-08-31T19:02:51.000Z,289.4
2022-08-31T19:04:18.000Z,289.27
2022-08-31T19:06:26.000Z,289.27
2022-08-31T19:07:53.000Z,289.21
2022-08-31T19:09:59.000Z,289.02
2022-08-31T19:11:26.000Z,289.02
2022-08-31T19:13:32.000Z,288.84
2022-08-31T19:14:59.000Z,288.84
2022-08-31T19:17:05.000Z,288.65
2022-08-31T19:18:32.000Z,288.59
2022-08-31T19:20:39.000Z,288.4
2022-08-31T19:22:05.000Z,288.52
2022-08-31T19:24:12.000Z,288.4
2022-08-31T19:25:39.000Z,288.34
2022-08-31T19:31:56.000Z,288.15
2022-08-31T19:33:22.000Z,288.09
2022-08-31T19:35:28.000Z,288.02
2022-08-31T19:36:55.000Z,288.09
2022-08-31T19:39:01.000Z,288.02
2022-08-31T19:41:52.000Z,287.96
2022-08-31T19:43:19.000Z,287.9
2022-08-31T19:45:58.000Z,287.77
2022-08-31T19:47:34.000Z,287.65
2022-08-31T19:49:40.000Z,287.65
2022-08-31T19:51:07.000Z,287.59
2022-08-31T19:53:13.000Z,287.46
2022-08-31T19:54:45.000Z,287.4
2022-08-31T19:56:51.000Z,287.59
2022-08-31T19:58:18.000Z,287.59
2022-08-31T20:00:24.000Z,287.46
2022-08-31T20:01:51.000Z,287.34
2022-08-31T20:03:57.000Z,287.27
2022-08-31T20:05:23.000Z,287.09
2022-08-31T20:07:30.000Z,287.15
2022-08-31T20:09:00.000Z,287.09
2022-08-31T20:11:06.000Z,286.96
2022-08-31T20:12:32.000Z,286.9
2022-08-31T20:14:39.000Z,287.09
2022-08-31T20:16:05.000Z,287.02
2022-08-31T20:18:11.000Z,286.9
2022-08-31T20:21:02.000Z,286.65
2022-08-31T20:22:29.000Z,286.71
2022-08-31T20:24:35.000Z,286.52
2022-08-31T20:26:02.000Z,286.52
2022-08-31T20:28:09.000Z,286.59
2022-08-31T20:29:35.000Z,286.52
2022-08-31T20:31:42.000Z,286.65
2022-08-31T20:33:09.000Z,286.52
2022-08-31T20:35:15.000Z,286.4
2022-08-31T20:36:42.000Z,286.27
2022-08-31T20:38:48.000Z,286.09
2022-08-31T20:40:15.000Z,286.15
2022-08-31T20:42:21.000Z,286.21
2022-08-31T20:43:48.000Z,286.15
2022-08-31T20:45:54.000Z,286.15
2022-08-31T20:47:20.000Z,286.15
2022-08-31T20:49:26.000Z,285.96
2022-08-31T20:50:54.000Z,286.02
2022-08-31T20:53:00.000Z,286.02
2022-08-31T20:54:27.000Z,286.02
2022-08-31T20:56:33.000Z,285.96
2022-08-31T20:59:24.000Z,285.9
2022-08-31T21:00:50.000Z,285.77
2022-08-31T21:02:56.000Z,285.84
2022-08-31T21:04:23.000Z,285.9
2022-08-31T21:06:29.000Z,285.96
2022-08-31T21:07:56.000Z,285.96
2022-08-31T21:10:02.000Z,285.59
2022-08-31T21:11:28.000Z,285.59
2022-08-31T21:13:34.000Z,285.71
2022-08-31T21:15:01.000Z,285.59
2022-08-31T21:17:07.000Z,285.65
2022-08-31T21:18:34.000Z,285.59
2022-08-31T21:20:40.000Z,285.52
2022-08-31T21:22:06.000Z,285.4
2022-08-31T21:24:12.000Z,285.21
2022-08-31T21:25:39.000Z,285.21
2022-08-31T21:27:45.000Z,285.21
2022-08-31T21:29:11.000Z,285.21
2022-08-31T21:31:17.000Z,285.15
2022-08-31T21:32:53.000Z,285.15
2022-08-31T21:35:02.000Z,285.02
2022-08-31T21:37:53.000Z,285.02
2022-08-31T21:39:20.000Z,285.02
2022-08-31T21:41:26.000Z,284.96
2022-08-31T21:42:52.000Z,284.96
2022-08-31T21:44:58.000Z,284.9
2022-08-31T21:46:25.000Z,284.9
2022-08-31T21:48:31.000Z,284.84
2022-08-31T21:49:57.000Z,284.84
2022-08-31T21:52:04.000Z,284.77
2022-08-31T21:53:30.000Z,284.71
2022-08-31T21:55:36.000Z,284.71
2022-08-31T21:57:03.000Z,284.77
2022-08-31T21:59:09.000Z,284.84
2022-08-31T22:00:35.000Z,284.84
2022-08-31T22:02:41.000Z,284.77
2022-08-31T22:04:09.000Z,284.77
2022-08-31T22:06:15.000Z,284.59
2022-08-31T22:07:43.000Z,284.52
2022-08-31T22:09:49.000Z,284.59
2022-08-31T22:11:15.000Z,284.52
2022-08-31T22:13:21.000Z,284.52
2022-08-31T22:16:13.000Z,284.34
2022-08-31T22:17:44.000Z,284.21
2022-08-31T22:20:10.000Z,284.34
2022-08-31T22:21:36.000Z,284.27
2022-08-31T22:23:43.000Z,284.21
2022-08-31T22:25:10.000Z,284.21
2022-08-31T22:27:16.000Z,284.21
2022-08-31T22:28:43.000Z,284.21
2022-08-31T22:30:49.000Z,284.27
2022-08-31T22:32:16.000Z,284.34
2022-08-31T22:34:22.000Z,284.27
2022-08-31T22:35:48.000Z,284.21
2022-08-31T22:37:54.000Z,284.27
2022-08-31T22:39:21.000Z,284.21
2022-08-31T22:41:27.000Z,284.09
2022-08-31T22:42:53.000Z,284.09
2022-08-31T22:44:59.000Z,284.09
2022-08-31T22:46:26.000Z,283.96
2022-08-31T22:48:32.000Z,283.9
2022-08-31T22:49:59.000Z,284.02
2022-08-31T22:52:05.000Z,284.02
2022-08-31T22:54:56.000Z,283.9
2022-08-31T22:56:23.000Z,283.96
2022-08-31T22:58:29.000Z,283.84
2022-08-31T22:59:55.000Z,283.9
2022-08-31T23:02:01.000Z,283.96
2022-08-31T23:03:28.000Z,283.96
2022-08-31T23:05:34.000Z,283.84
2022-08-31T23:07:01.000Z,283.84